createdAt,value
2022-09-24T00:01:37.626Z,13.70
2022-09-24T00:04:09.975Z,10.32
2022-09-24T00:06:47.297Z,13.30
2022-09-24T00:09:18.415Z,7.53
2022-09-24T00:11:46.636Z,13.73
2022-09-24T00:14:14.947Z,14.48
2022-09-24T00:16:44.763Z,24.85
2022-09-24T00:19:14.815Z,20.13
2022-09-24T00:21:44.403Z,19.05
2022-09-24T00:24:17.793Z,14.32
2022-09-24T00:26:46.131Z,20.55
2022-09-24T00:29:22.904Z,22.35
2022-09-24T00:31:52.469Z,32.38
2022-09-24T00:34:21.372Z,25.08
2022-09-24T00:36:49.807Z,29.95
2022-09-24T00:39:18.029Z,46.70
2022-09-24T00:41:46.616Z,23.88
2022-09-24T00:44:45.677Z,17.67
2022-09-24T00:47:22.993Z,17.27
2022-09-24T00:49:51.908Z,14.82
2022-09-24T00:52:20.527Z,18.15
2022-09-24T00:54:49.526Z,28.00
2022-09-24T00:57:18.188Z,27.00
2022-09-24T00:59:46.623Z,18.40
2022-09-24T01:02:15.028Z,16.50
2022-09-24T01:04:43.351Z,14.38
2022-09-24T01:07:11.617Z,14.50
2022-09-24T01:09:39.919Z,13.75
2022-09-24T01:12:38.322Z,17.92
2022-09-24T01:15:17.267Z,19.45
2022-09-24T01:18:13.731Z,14.60
2022-09-24T01:20:44.989Z,15.00
2022-09-24T01:23:46.268Z,14.00
2022-09-24T01:26:45.900Z,15.27
2022-09-24T01:29:32.864Z,16.52
2022-09-24T01:32:13.401Z,18.70
2022-09-24T01:34:46.598Z,13.02
2022-09-24T01:37:18.429Z,17.35
2022-09-24T01:39:48.707Z,21.08
2022-09-24T01:42:18.419Z,19.35
2022-09-24T01:44:48.099Z,22.63
2022-09-24T01:47:36.752Z,19.40
2022-09-24T01:50:05.285Z,22.90
2022-09-24T01:52:41.597Z,18.98
2022-09-24T01:55:14.258Z,24.67
2022-09-24T01:57:50.038Z,17.13
2022-09-24T02:00:22.972Z,18.92
2022-09-24T02:03:15.228Z,19.63
2022-09-24T02:06:03.411Z,23.30
2022-09-24T02:08:37.834Z,19.25
2022-09-24T02:11:12.309Z,21.33
2022-09-24T02:13:50.265Z,14.98
2022-09-24T02:16:24.180Z,21.80
2022-09-24T02:18:56.986Z,26.30
2022-09-24T02:21:26.475Z,18.25
2022-09-24T02:24:20.413Z,25.13
2022-09-24T02:26:48.883Z,17.73
2022-09-24T02:29:17.744Z,18.40
2022-09-24T02:31:50.275Z,18.27
2022-09-24T02:34:24.209Z,20.15
2022-09-24T02:37:11.683Z,15.88
2022-09-24T02:39:40.019Z,14.30
2022-09-24T02:42:10.049Z,9.70
2022-09-24T02:44:38.237Z,9.68
2022-09-24T02:47:07.670Z,18.73
2022-09-24T02:49:36.486Z,22.10
2022-09-24T02:52:04.770Z,22.52
2022-09-24T02:54:33.030Z,18.55
2022-09-24T02:57:01.247Z,21.25
2022-09-24T02:59:29.373Z,27.10
2022-09-24T03:01:57.745Z,24.05
2022-09-24T03:04:26.158Z,16.77
2022-09-24T03:06:54.253Z,19.50
2022-09-24T03:09:22.410Z,21.73
2022-09-24T03:11:50.703Z,14.93
2022-09-24T03:14:18.980Z,20.10
2022-09-24T03:16:47.190Z,20.63
2022-09-24T03:19:15.250Z,17.98
2022-09-24T03:21:43.401Z,18.05
2022-09-24T03:24:11.737Z,14.30
2022-09-24T03:26:40.002Z,21.63
2022-09-24T03:29:09.565Z,16.92
2022-09-24T03:31:37.954Z,19.40
2022-09-24T03:34:06.309Z,17.08
2022-09-24T03:36:34.489Z,19.23
2022-09-24T03:39:02.871Z,20.77
2022-09-24T03:41:31.058Z,30.58
2022-09-24T03:43:59.229Z,23.40
2022-09-24T03:46:27.475Z,18.27
2022-09-24T03:48:55.815Z,10.10
2022-09-24T03:51:24.132Z,7.32
2022-09-24T03:53:52.356Z,6.18
2022-09-24T03:56:20.683Z,7.95
2022-09-24T03:58:48.919Z,14.15
2022-09-24T04:01:17.776Z,9.63
2022-09-24T04:03:45.981Z,17.27
2022-09-24T04:06:14.188Z,14.20
2022-09-24T04:08:42.338Z,11.10
2022-09-24T04:11:10.465Z,8.43
2022-09-24T04:13:38.780Z,11.85
2022-09-24T04:16:07.153Z,15.43
2022-09-24T04:18:39.065Z,12.30
2022-09-24T04:21:08.019Z,13.82
2022-09-24T04:23:36.236Z,12.55
2022-09-24T04:26:04.507Z,14.52
2022-09-24T04:28:32.922Z,14.55
2022-09-24T04:31:01.099Z,10.38
2022-09-24T04:33:29.350Z,8.85
2022-09-24T04:35:57.435Z,10.35
2022-09-24T04:38:25.855Z,9.95
2022-09-24T04:40:54.126Z,6.32
2022-09-24T04:43:22.470Z,9.70
2022-09-24T04:45:50.652Z,10.82
2022-09-24T04:48:18.942Z,6.28
2022-09-24T04:50:47.628Z,9.20
2022-09-24T04:53:15.796Z,6.70
2022-09-24T04:55:44.266Z,8.77
2022-09-24T04:58:12.445Z,8.55
2022-09-24T05:00:40.693Z,7.15
2022-09-24T05:03:10.203Z,9.70
2022-09-24T05:05:38.479Z,12.38
2022-09-24T05:08:06.538Z,7.32
2022-09-24T05:10:34.837Z,9.00
2022-09-24T05:13:02.895Z,9.40
2022-09-24T05:15:31.550Z,10.30
2022-09-24T05:17:59.842Z,9.68
2022-09-24T05:20:28.245Z,8.32
2022-09-24T05:22:56.490Z,9.07
2022-09-24T05:25:24.661Z,13.63
2022-09-24T05:27:54.803Z,6.82
2022-09-24T05:30:25.344Z,13.63
2022-09-24T05:32:53.571Z,10.25
2022-09-24T05:35:23.628Z,10.95
2022-09-24T05:37:52.112Z,10.73
2022-09-24T05:40:20.251Z,10.05
2022-09-24T05:42:48.542Z,10.48
2022-09-24T05:45:17.097Z,9.63
2022-09-24T05:47:48.256Z,10.60
2022-09-24T05:50:16.617Z,11.05
2022-09-24T05:52:44.797Z,11.95
2022-09-24T05:55:13.103Z,10.85
2022-09-24T05:57:41.197Z,9.70
2022-09-24T06:00:09.774Z,11.23
2022-09-24T06:02:40.771Z,18.10
2022-09-24T06:05:09.527Z,15.10
2022-09-24T06:07:37.747Z,19.42
2022-09-24T06:10:06.751Z,20.58
2022-09-24T06:12:34.937Z,21.00
2022-09-24T06:15:03.534Z,16.52
2022-09-24T06:17:31.764Z,14.98
2022-09-24T06:19:59.851Z,18.23
2022-09-24T06:22:29.178Z,20.58
2022-09-24T06:24:57.495Z,19.33
2022-09-24T06:27:25.520Z,20.55
2022-09-24T06:29:53.800Z,12.80
2022-09-24T06:32:24.734Z,16.92
2022-09-24T06:34:56.914Z,25.25
2022-09-24T06:37:27.465Z,24.67
2022-09-24T06:39:55.567Z,27.05
2022-09-24T06:42:23.894Z,21.48
2022-09-24T06:44:52.319Z,21.02
2022-09-24T06:47:20.503Z,18.40
2022-09-24T06:49:48.663Z,13.63
2022-09-24T06:52:17.165Z,17.55
2022-09-24T06:54:45.373Z,15.18
2022-09-24T06:57:13.679Z,12.88
2022-09-24T06:59:41.941Z,10.07
2022-09-24T07:02:10.890Z,19.67
2022-09-24T07:04:39.053Z,16.52
2022-09-24T07:07:07.349Z,14.77
2022-09-24T07:09:35.704Z,7.47
2022-09-24T07:12:03.972Z,8.43
2022-09-24T07:14:32.202Z,11.88
2022-09-24T07:17:00.573Z,4.15
2022-09-24T07:19:28.806Z,2.60
2022-09-24T07:21:57.157Z,3.13
2022-09-24T07:24:25.259Z,2.15
2022-09-24T07:26:53.419Z,4.20
2022-09-24T07:29:21.824Z,1.90
2022-09-24T07:31:50.075Z,2.30
2022-09-24T07:34:18.339Z,2.42
2022-09-24T07:36:46.624Z,8.05
2022-09-24T07:39:14.775Z,4.50
2022-09-24T07:41:43.095Z,7.75
2022-09-24T07:44:11.448Z,5.45
2022-09-24T07:46:39.577Z,7.65
2022-09-24T07:49:07.906Z,7.18
2022-09-24T07:51:36.184Z,6.07
2022-09-24T07:54:04.575Z,7.75
2022-09-24T07:56:32.988Z,8.77
2022-09-24T07:59:01.148Z,14.65
2022-09-24T08:01:29.565Z,9.60
2022-09-24T08:03:58.541Z,5.95
2022-09-24T08:06:26.871Z,6.65
2022-09-24T08:08:55.197Z,8.10
2022-09-24T08:11:23.451Z,7.43
2022-09-24T08:13:51.764Z,9.35
2022-09-24T08:16:20.193Z,11.52
2022-09-24T08:18:48.588Z,9.50
2022-09-24T08:21:17.055Z,12.90
2022-09-24T08:23:45.208Z,14.00
2022-09-24T08:26:14.370Z,10.00
2022-09-24T08:28:43.060Z,9.38
2022-09-24T08:31:15.028Z,6.25
2022-09-24T08:33:43.273Z,6.18
2022-09-24T08:36:11.538Z,3.95
2022-09-24T08:38:39.903Z,6.10
2022-09-24T08:41:35.638Z,4.35
2022-09-24T08:44:12.673Z,6.22
2022-09-24T08:46:53.700Z,5.07
2022-09-24T08:49:37.993Z,6.07
2022-09-24T08:52:40.300Z,5.95
2022-09-24T08:55:14.939Z,7.22
2022-09-24T08:57:50.907Z,6.55
2022-09-24T09:00:19.240Z,5.28
2022-09-24T09:03:05.374Z,5.30
2022-09-24T09:05:55.588Z,5.85
2022-09-24T09:09:06.340Z,2.83
2022-09-24T09:11:37.948Z,3.97
2022-09-24T09:14:12.025Z,3.38
2022-09-24T09:16:45.973Z,3.53
2022-09-24T09:19:16.903Z,6.30
2022-09-24T09:21:53.373Z,12.30
2022-09-24T09:24:27.569Z,3.83
2022-09-24T09:26:57.241Z,3.92
2022-09-24T09:29:27.283Z,3.75
2022-09-24T09:32:12.685Z,2.72
2022-09-24T09:35:21.617Z,5.10
2022-09-24T09:38:01.366Z,7.93
2022-09-24T09:40:38.936Z,2.92
2022-09-24T09:43:15.417Z,3.63
2022-09-24T09:46:02.004Z,5.57
2022-09-24T09:48:47.127Z,2.88
2022-09-24T09:51:22.240Z,3.85
2022-09-24T09:53:58.728Z,2.15
2022-09-24T09:56:30.287Z,2.65
2022-09-24T09:59:29.911Z,5.32
2022-09-24T10:01:58.505Z,6.05
2022-09-24T10:04:35.680Z,2.95
2022-09-24T10:07:12.326Z,3.60
2022-09-24T10:09:42.266Z,5.05
2022-09-24T10:12:16.660Z,3.65
2022-09-24T10:14:45.901Z,2.97
2022-09-24T10:17:18.802Z,5.40
2022-09-24T10:19:47.791Z,5.88
2022-09-24T10:22:26.279Z,5.97
2022-09-24T10:24:57.628Z,9.20
2022-09-24T10:27:36.008Z,6.63
2022-09-24T10:30:14.742Z,7.82
2022-09-24T10:32:43.176Z,4.95
2022-09-24T10:35:31.291Z,3.83
2022-09-24T10:38:01.095Z,4.07
2022-09-24T10:40:40.555Z,4.45
2022-09-24T10:43:16.149Z,5.05
2022-09-24T10:46:23.064Z,5.20
2022-09-24T10:48:55.239Z,3.70
2022-09-24T10:51:51.341Z,3.17
2022-09-24T10:54:44.605Z,2.60
2022-09-24T10:57:37.182Z,4.10
2022-09-24T11:03:25.346Z,8.55
2022-09-24T11:05:57.507Z,9.32
2022-09-24T11:11:40.180Z,6.85
2022-09-24T11:14:11.284Z,9.85
2022-09-24T11:17:01.675Z,10.38
2022-09-24T11:19:47.119Z,7.57
2022-09-24T11:22:17.233Z,8.63
2022-09-24T11:25:02.080Z,7.38
2022-09-24T11:27:55.771Z,7.20
2022-09-24T11:30:28.587Z,5.47
2022-09-24T11:33:18.269Z,9.75
2022-09-24T11:36:13.847Z,5.90
2022-09-24T11:38:51.237Z,6.47
2022-09-24T11:41:44.211Z,8.05
2022-09-24T11:44:36.609Z,10.38
2022-09-24T11:47:29.588Z,13.95
2022-09-24T11:50:21.384Z,13.70
2022-09-24T11:52:57.337Z,14.25
2022-09-24T11:55:35.538Z,15.57
2022-09-24T11:58:09.924Z,14.13
2022-09-24T12:01:27.600Z,8.10
2022-09-24T12:04:14.305Z,10.65
2022-09-24T12:06:51.417Z,10.85
2022-09-24T12:09:49.658Z,6.45
2022-09-24T12:12:21.597Z,9.90
2022-09-24T12:15:12.794Z,11.35
2022-09-24T12:17:55.322Z,8.68
2022-09-24T12:20:46.633Z,14.90
2022-09-24T12:23:18.195Z,16.13
2022-09-24T12:25:49.016Z,15.82
2022-09-24T12:28:21.135Z,14.73
2022-09-24T12:33:45.807Z,20.20
2022-09-24T12:36:24.975Z,9.77
2022-09-24T12:39:03.179Z,9.52
2022-09-24T12:41:47.811Z,10.07
2022-09-24T12:44:29.767Z,18.60
2022-09-24T12:46:59.805Z,17.52
2022-09-24T12:49:28.046Z,10.48
2022-09-24T12:52:17.730Z,13.48
2022-09-24T12:54:46.493Z,15.27
2022-09-24T12:57:26.840Z,13.88
2022-09-24T12:59:59.275Z,18.63
2022-09-24T13:05:53.251Z,12.88
2022-09-24T13:08:21.544Z,9.10
2022-09-24T13:10:58.910Z,9.48
2022-09-24T13:13:29.887Z,8.65
2022-09-24T13:16:06.216Z,6.35
2022-09-24T13:18:37.971Z,10.85
2022-09-24T13:21:08.603Z,11.93
2022-09-24T13:23:36.866Z,15.40
2022-09-24T13:26:10.047Z,19.00
2022-09-24T13:28:53.637Z,12.48
2022-09-24T13:31:54.234Z,15.40
2022-09-24T13:34:30.750Z,11.55
2022-09-24T13:37:04.953Z,11.43
2022-09-24T13:39:45.335Z,7.40
2022-09-24T13:42:32.717Z,11.98
2022-09-24T13:45:09.688Z,7.60
2022-09-24T13:47:48.385Z,14.63
2022-09-24T13:50:28.104Z,16.63
2022-09-24T13:53:05.692Z,12.45
2022-09-24T13:55:47.848Z,9.57
2022-09-24T13:58:36.801Z,11.80
2022-09-24T14:01:28.184Z,9.00
2022-09-24T14:03:59.845Z,13.40
2022-09-24T14:06:42.035Z,10.40
2022-09-24T14:09:36.301Z,10.90
2022-09-24T14:12:18.357Z,10.07
2022-09-24T14:14:51.390Z,18.63
2022-09-24T14:17:19.943Z,13.05
2022-09-24T14:19:49.637Z,10.25
2022-09-24T14:22:24.720Z,9.48
2022-09-24T14:25:09.421Z,10.38
2022-09-24T14:27:47.239Z,8.73
2022-09-24T14:30:23.686Z,10.43
2022-09-24T14:33:05.588Z,8.23
2022-09-24T14:35:39.486Z,9.75
2022-09-24T14:38:29.806Z,13.25
2022-09-24T14:41:07.816Z,20.38
2022-09-24T14:43:46.879Z,16.13
2022-09-24T14:46:24.257Z,13.43
2022-09-24T14:48:52.759Z,13.98
2022-09-24T14:51:31.471Z,10.70
2022-09-24T14:54:19.017Z,10.00
2022-09-24T14:56:47.233Z,8.32
2022-09-24T14:59:17.064Z,9.93
2022-09-24T15:01:45.485Z,8.98
2022-09-24T15:04:27.767Z,17.08
2022-09-24T15:06:56.297Z,11.65
2022-09-24T15:09:30.483Z,15.05
2022-09-24T15:12:19.555Z,18.90
2022-09-24T15:14:59.191Z,13.63
2022-09-24T15:17:35.877Z,16.67
2022-09-24T15:20:05.315Z,21.10
2022-09-24T15:22:33.666Z,10.13
2022-09-24T15:25:02.623Z,12.48
2022-09-24T15:27:37.873Z,13.23
2022-09-24T15:30:07.886Z,8.43
2022-09-24T15:32:36.300Z,10.23
2022-09-24T15:35:06.201Z,12.88
2022-09-24T15:37:34.541Z,8.88
2022-09-24T15:40:23.029Z,7.63
2022-09-24T15:42:52.139Z,11.05
2022-09-24T15:45:22.295Z,13.07
2022-09-24T15:47:51.872Z,9.52
2022-09-24T15:50:24.457Z,11.77
2022-09-24T15:53:02.621Z,8.05
2022-09-24T15:55:30.988Z,7.40
2022-09-24T15:57:59.197Z,10.00
2022-09-24T16:00:27.469Z,7.68
2022-09-24T16:02:58.076Z,6.88
2022-09-24T16:05:26.830Z,7.97
2022-09-24T16:07:55.291Z,8.05
2022-09-24T16:10:23.544Z,7.15
2022-09-24T16:12:51.967Z,6.63
2022-09-24T16:15:20.478Z,5.38
2022-09-24T16:17:49.272Z,6.35
2022-09-24T16:20:17.752Z,8.68
2022-09-24T16:22:46.010Z,8.27
2022-09-24T16:25:14.286Z,8.10
2022-09-24T16:27:42.633Z,9.40
2022-09-24T16:30:11.174Z,10.85
2022-09-24T16:32:39.382Z,7.35
2022-09-24T16:35:08.116Z,8.98
2022-09-24T16:37:36.453Z,11.32
2022-09-24T16:40:05.287Z,11.18
2022-09-24T16:42:35.251Z,11.45
2022-09-24T16:45:03.690Z,10.55
2022-09-24T16:47:31.792Z,10.48
2022-09-24T16:50:00.071Z,10.50
2022-09-24T16:52:31.331Z,10.05
2022-09-24T16:54:59.716Z,9.23
2022-09-24T16:57:27.982Z,7.85
2022-09-24T16:59:56.217Z,11.57
2022-09-24T17:02:24.660Z,9.40
2022-09-24T17:04:52.795Z,9.48
2022-09-24T17:07:21.033Z,7.95
2022-09-24T17:09:49.360Z,11.05
2022-09-24T17:12:17.808Z,7.15
2022-09-24T17:14:45.983Z,7.90
2022-09-24T17:17:14.500Z,6.75
2022-09-24T17:19:42.772Z,6.90
2022-09-24T17:22:11.035Z,6.28
2022-09-24T17:24:39.277Z,8.20
2022-09-24T17:27:08.603Z,14.30
2022-09-24T17:29:37.013Z,7.65
2022-09-24T17:32:05.195Z,7.25
2022-09-24T17:34:33.410Z,7.80
2022-09-24T17:37:01.663Z,9.90
2022-09-24T17:39:29.905Z,6.43
2022-09-24T17:41:58.507Z,6.88
2022-09-24T17:44:26.589Z,7.70
2022-09-24T17:46:54.937Z,7.68
2022-09-24T17:49:23.282Z,9.20
2022-09-24T17:51:51.507Z,6.18
2022-09-24T17:54:19.780Z,7.95
2022-09-24T17:56:48.191Z,8.40
2022-09-24T17:59:16.911Z,8.73
2022-09-24T18:01:46.302Z,8.85
2022-09-24T18:04:17.531Z,8.02
2022-09-24T18:06:47.461Z,9.32
2022-09-24T18:09:16.928Z,9.05
2022-09-24T18:11:49.973Z,6.07
2022-09-24T18:14:20.836Z,12.23
2022-09-24T18:16:49.818Z,15.00
2022-09-24T18:19:18.755Z,8.68
2022-09-24T18:21:47.590Z,8.02
2022-09-24T18:24:15.793Z,13.90
2022-09-24T18:26:44.017Z,13.73
2022-09-24T18:29:17.132Z,10.10
2022-09-24T18:31:45.625Z,13.73
2022-09-24T18:34:15.388Z,5.32
2022-09-24T18:36:44.956Z,3.85
2022-09-24T18:39:18.719Z,7.15
2022-09-24T18:41:50.391Z,4.28
2022-09-24T18:44:18.706Z,7.30
2022-09-24T18:46:46.927Z,7.72
2022-09-24T18:49:15.175Z,10.20
2022-09-24T18:51:43.610Z,8.55
2022-09-24T18:54:14.077Z,11.70
2022-09-24T18:56:42.575Z,11.07
2022-09-24T18:59:21.020Z,13.38
2022-09-24T19:01:50.104Z,7.07
2022-09-24T19:04:19.147Z,6.32
2022-09-24T19:06:48.359Z,12.55
2022-09-24T19:09:17.610Z,9.45
2022-09-24T19:11:47.195Z,6.25
2022-09-24T19:14:16.555Z,4.65
2022-09-24T19:16:45.526Z,12.77
2022-09-24T19:19:14.049Z,9.30
2022-09-24T19:21:42.251Z,5.53
2022-09-24T19:24:10.631Z,6.38
2022-09-24T19:26:39.290Z,6.60
2022-09-24T19:29:07.625Z,13.43
2022-09-24T19:31:38.561Z,6.80
2022-09-24T19:34:09.339Z,6.15
2022-09-24T19:36:42.596Z,7.38
2022-09-24T19:39:18.228Z,9.00
2022-09-24T19:41:46.857Z,13.88
2022-09-24T19:44:15.264Z,9.38
2022-09-24T19:46:43.859Z,10.18
2022-09-24T19:49:12.121Z,5.32
2022-09-24T19:51:40.507Z,3.85
2022-09-24T19:54:09.282Z,5.47
2022-09-24T19:56:38.031Z,8.93
2022-09-24T19:59:06.923Z,7.05
2022-09-24T20:01:35.775Z,8.40
2022-09-24T20:04:06.954Z,8.10
2022-09-24T20:06:37.210Z,8.53
2022-09-24T20:09:06.428Z,10.43
2022-09-24T20:11:35.558Z,9.65
2022-09-24T20:14:04.144Z,17.25
2022-09-24T20:16:32.301Z,12.70
2022-09-24T20:19:01.418Z,8.57
2022-09-24T20:21:32.533Z,12.13
2022-09-24T20:24:01.175Z,6.93
2022-09-24T20:26:29.532Z,9.55
2022-09-24T20:28:58.273Z,15.27
2022-09-24T20:31:27.267Z,16.73
2022-09-24T20:33:55.523Z,13.15
2022-09-24T20:36:25.038Z,9.63
2022-09-24T20:38:54.012Z,10.68
2022-09-24T20:41:24.986Z,13.57
2022-09-24T20:43:54.215Z,9.25
2022-09-24T20:46:25.638Z,15.90
2022-09-24T20:48:55.228Z,9.38
2022-09-24T20:51:23.366Z,10.43
2022-09-24T20:53:51.561Z,10.35
2022-09-24T20:56:22.310Z,7.22
2022-09-24T20:58:52.298Z,8.75
2022-09-24T21:01:21.804Z,5.68
2022-09-24T21:03:50.317Z,9.25
2022-09-24T21:06:19.909Z,12.20
2022-09-24T21:08:48.310Z,12.05
2022-09-24T21:11:19.248Z,19.30
2022-09-24T21:13:52.962Z,9.20
2022-09-24T21:16:24.821Z,10.57
2022-09-24T21:18:53.960Z,11.93
2022-09-24T21:21:31.011Z,9.30
2022-09-24T21:24:00.908Z,13.45
2022-09-24T21:26:31.643Z,12.65
2022-09-24T21:29:05.999Z,8.38
2022-09-24T21:31:35.599Z,9.38
2022-09-24T21:34:05.169Z,10.45
2022-09-24T21:36:42.922Z,9.35
2022-09-24T21:39:18.682Z,28.80
2022-09-24T21:41:48.619Z,35.30
2022-09-24T21:44:17.463Z,29.45
2022-09-24T21:46:45.958Z,16.83
2022-09-24T21:49:14.682Z,39.90
2022-09-24T21:51:42.723Z,40.70
2022-09-24T21:54:14.581Z,27.88
2022-09-24T21:56:43.201Z,16.70
2022-09-24T21:59:11.791Z,17.27
2022-09-24T22:01:40.043Z,29.52
2022-09-24T22:04:09.170Z,29.50
2022-09-24T22:06:37.493Z,20.15
2022-09-24T22:09:07.366Z,17.98
2022-09-24T22:11:36.594Z,10.52
2022-09-24T22:14:05.249Z,13.93
2022-09-24T22:16:36.613Z,13.80
2022-09-24T22:19:06.639Z,10.05
2022-09-24T22:21:35.336Z,10.50
2022-09-24T22:24:03.743Z,8.13
2022-09-24T22:26:32.139Z,8.02
2022-09-24T22:29:02.456Z,7.60
2022-09-24T22:31:30.952Z,8.98
2022-09-24T22:33:59.037Z,7.55
2022-09-24T22:36:32.332Z,22.77
2022-09-24T22:39:01.485Z,39.72
2022-09-24T22:41:30.904Z,124.30
2022-09-24T22:43:59.493Z,127.72
2022-09-24T22:46:28.077Z,69.65
2022-09-24T22:48:57.215Z,29.90
2022-09-24T22:51:26.568Z,24.17
2022-09-24T22:53:55.722Z,17.00
2022-09-24T22:56:27.785Z,14.00
2022-09-24T22:59:01.002Z,9.70
2022-09-24T23:01:32.567Z,7.18
2022-09-24T23:04:01.809Z,8.75
2022-09-24T23:06:30.726Z,9.65
2022-09-24T23:08:58.957Z,5.80
2022-09-24T23:11:30.189Z,6.75
2022-09-24T23:14:03.751Z,5.05
2022-09-24T23:16:37.644Z,9.15
2022-09-24T23:19:08.707Z,12.88
2022-09-24T23:21:37.014Z,10.00
2022-09-24T23:24:08.708Z,24.80
2022-09-24T23:26:36.910Z,20.55
2022-09-24T23:29:05.360Z,14.52
2022-09-24T23:31:35.828Z,7.25
2022-09-24T23:34:06.078Z,5.85
2022-09-24T23:36:34.527Z,7.63
2022-09-24T23:39:04.164Z,11.23
2022-09-24T23:41:32.477Z,12.82
2022-09-24T23:44:01.316Z,11.85
2022-09-24T23:46:30.023Z,12.77
2022-09-24T23:48:58.274Z,13.60
2022-09-24T23:51:26.495Z,11.00
2022-09-24T23:53:54.822Z,9.73
2022-09-24T23:56:22.891Z,11.57
2022-09-24T23:58:51.214Z,15.00
